createdAt,value
2022-08-12T00:00:00.201Z,100902.47
2022-08-12T00:02:46.107Z,100905.94
2022-08-12T00:05:32.051Z,100905.09
2022-08-12T00:08:17.582Z,100910.31
2022-08-12T00:11:15.347Z,100916.44
2022-08-12T00:14:01.243Z,100912.94
2022-08-12T00:16:47.542Z,100909.47
2022-08-12T00:19:33.845Z,100914.69
2022-08-12T00:22:19.790Z,100925.13
2022-08-12T00:25:05.828Z,100918.19
2022-08-12T00:27:51.870Z,100926.00
2022-08-12T00:30:37.541Z,100937.34
2022-08-12T00:33:23.235Z,100928.63
2022-08-12T00:36:17.799Z,100921.66
2022-08-12T00:39:18.104Z,100921.66
2022-08-12T00:42:04.751Z,100929.47
2022-08-12T00:44:31.741Z,100919.06
2022-08-12T00:47:01.202Z,100917.28
2022-08-12T00:49:30.617Z,100919.91
2022-08-12T00:52:10.067Z,100922.50
2022-08-12T00:54:58.347Z,100921.66
2022-08-12T00:57:37.452Z,100918.19
2022-08-12T01:00:13.329Z,100929.47
2022-08-12T01:02:42.492Z,100923.41
2022-08-12T01:05:30.917Z,100927.75
2022-08-12T01:08:16.530Z,100924.28
2022-08-12T01:11:04.070Z,100926.03
2022-08-12T01:13:35.111Z,100922.53
2022-08-12T01:16:05.711Z,100921.66
2022-08-12T01:18:35.511Z,100919.91
2022-08-12T01:21:27.203Z,100919.94
2022-08-12T01:24:32.196Z,100920.78
2022-08-12T01:27:01.449Z,100923.38
2022-08-12T01:29:33.020Z,100913.84
2022-08-12T01:32:01.418Z,100917.31
2022-08-12T01:34:36.356Z,100914.69
2022-08-12T01:37:06.599Z,100921.66
2022-08-12T01:40:33.881Z,100917.31
2022-08-12T01:42:39.865Z,100920.78
2022-08-12T01:45:07.574Z,100919.06
2022-08-12T01:47:49.227Z,100923.41
2022-08-12T01:50:31.229Z,100919.91
2022-08-12T01:53:00.526Z,100921.63
2022-08-12T01:55:32.542Z,100914.69
2022-08-12T01:58:51.762Z,100913.81
2022-08-12T02:01:21.036Z,100912.97
2022-08-12T02:04:23.524Z,100915.53
2022-08-12T02:07:27.989Z,100917.28
2022-08-12T02:10:49.414Z,100919.88
2022-08-12T02:13:42.115Z,100917.25
2022-08-12T02:16:27.399Z,100918.13
2022-08-12T02:19:22.789Z,100917.25
2022-08-12T02:22:22.668Z,100922.47
2022-08-12T02:24:51.020Z,100919.84
2022-08-12T02:27:19.566Z,100920.72
2022-08-12T02:29:47.651Z,100923.34
2022-08-12T02:32:15.165Z,100924.22
2022-08-12T02:34:44.573Z,100918.13
2022-08-12T02:37:15.457Z,100924.22
2022-08-12T02:39:48.906Z,100920.72
2022-08-12T02:42:19.755Z,100929.44
2022-08-12T02:44:51.410Z,100925.94
2022-08-12T02:47:59.131Z,100921.59
2022-08-12T02:50:10.993Z,100924.19
2022-08-12T02:52:38.936Z,100924.16
2022-08-12T02:55:28.936Z,100922.44
2022-08-12T02:58:12.353Z,100926.78
2022-08-12T03:00:43.354Z,100922.44
2022-08-12T03:03:13.122Z,100917.22
2022-08-12T03:06:00.038Z,100925.06
2022-08-12T03:08:32.926Z,100921.59
2022-08-12T03:11:06.238Z,100918.13
2022-08-12T03:13:42.848Z,100924.19
2022-08-12T03:16:09.977Z,100925.97
2022-08-12T03:18:37.256Z,100923.34
2022-08-12T03:21:04.373Z,100925.97
2022-08-12T03:23:31.709Z,100929.44
2022-08-12T03:26:02.849Z,100928.56
2022-08-12T03:28:51.699Z,100924.22
2022-08-12T03:31:24.923Z,100935.53
2022-08-12T03:34:00.617Z,100927.69
2022-08-12T03:36:31.477Z,100921.63
2022-08-12T03:39:19.004Z,100923.41
2022-08-12T03:41:58.489Z,100930.31
2022-08-12T03:44:57.429Z,100932.88
2022-08-12T03:48:08.760Z,100934.38
2022-08-12T03:50:55.475Z,100935.75
2022-08-12T03:53:46.363Z,100932.81
2022-08-12T03:56:32.632Z,100928.81
2022-08-12T03:59:19.478Z,100926.53
2022-08-12T04:01:52.617Z,100934.63
2022-08-12T04:04:23.501Z,100929.59
2022-08-12T04:06:50.707Z,100930.66
2022-08-12T04:09:21.168Z,100933.50
2022-08-12T04:12:07.646Z,100934.47
2022-08-12T04:14:37.799Z,100931.88
2022-08-12T04:17:05.205Z,100930.31
2022-08-12T04:19:32.257Z,100930.53
2022-08-12T04:22:02.772Z,100936.03
2022-08-12T04:24:35.586Z,100935.03
2022-08-12T04:27:08.780Z,100936.41
2022-08-12T04:30:32.913Z,100935.50
2022-08-12T04:32:27.739Z,100934.31
2022-08-12T04:34:55.366Z,100935.59
2022-08-12T04:37:23.264Z,100940.66
2022-08-12T04:39:51.054Z,100930.53
2022-08-12T04:42:20.243Z,100941.00
2022-08-12T04:44:48.210Z,100927.47
2022-08-12T04:47:16.646Z,100932.06
2022-08-12T04:49:45.566Z,100922.25
2022-08-12T04:52:13.546Z,100922.31
2022-08-12T04:54:40.879Z,100931.44
2022-08-12T04:57:09.994Z,100926.72
2022-08-12T04:59:46.918Z,100921.28
2022-08-12T05:02:21.714Z,100931.66
2022-08-12T05:04:56.288Z,100926.28
2022-08-12T05:07:28.546Z,100925.53
2022-08-12T05:10:00.733Z,100927.56
2022-08-12T05:12:43.207Z,100931.59
2022-08-12T05:15:27.471Z,100921.78
2022-08-12T05:18:00.237Z,100926.81
2022-08-12T05:20:29.879Z,100926.09
2022-08-12T05:23:17.582Z,100927.06
2022-08-12T05:25:45.921Z,100928.16
2022-08-12T05:28:14.163Z,100939.09
2022-08-12T05:30:42.785Z,100934.47
2022-08-12T05:33:11.578Z,100933.53
2022-08-12T05:35:41.767Z,100934.09
2022-08-12T05:38:32.549Z,100944.34
2022-08-12T05:41:00.697Z,100934.13
2022-08-12T05:43:28.880Z,100945.25
2022-08-12T05:45:56.247Z,100937.97
2022-08-12T05:48:23.539Z,100939.09
2022-08-12T05:50:50.699Z,100940.31
2022-08-12T05:53:17.637Z,100938.09
2022-08-12T05:55:44.727Z,100941.28
2022-08-12T05:58:11.720Z,100934.75
2022-08-12T06:00:38.873Z,100942.91
2022-08-12T06:03:06.893Z,100941.56
2022-08-12T06:05:43.045Z,100940.50
2022-08-12T06:08:21.821Z,100942.63
2022-08-12T06:10:52.059Z,100942.09
2022-08-12T06:13:28.554Z,100951.88
2022-08-12T06:16:07.739Z,100946.44
2022-08-12T06:18:35.158Z,100942.41
2022-08-12T06:21:02.474Z,100947.31
2022-08-12T06:23:30.580Z,100955.06
2022-08-12T06:25:58.627Z,100939.94
2022-08-12T06:28:26.153Z,100946.25
2022-08-12T06:31:22.147Z,100945.03
2022-08-12T06:33:54.973Z,100946.88
2022-08-12T06:36:29.475Z,100937.41
2022-08-12T06:38:57.368Z,100928.63
2022-08-12T06:42:30.604Z,100929.66
2022-08-12T06:44:29.919Z,100927.19
2022-08-12T06:46:58.541Z,100927.41
2022-08-12T06:49:26.071Z,100939.91
2022-08-12T06:51:56.913Z,100932.94
2022-08-12T06:54:27.055Z,100932.22
2022-08-12T06:57:04.857Z,100940.97
2022-08-12T06:59:51.133Z,100937.34
2022-08-12T07:02:21.139Z,100932.03
2022-08-12T07:04:50.877Z,100938.66
2022-08-12T07:07:18.597Z,100937.84
2022-08-12T07:10:04.724Z,100943.50
2022-08-12T07:12:32.702Z,100937.75
2022-08-12T07:15:01.981Z,100942.34
2022-08-12T07:17:37.851Z,100943.88
2022-08-12T07:20:29.838Z,100944.78
2022-08-12T07:22:58.162Z,100942.75
2022-08-12T07:25:41.559Z,100946.38
2022-08-12T07:28:29.472Z,100940.09
2022-08-12T07:30:58.053Z,100938.38
2022-08-12T07:33:28.254Z,100937.56
2022-08-12T07:35:57.532Z,100944.84
2022-08-12T07:38:33.705Z,100932.78
2022-08-12T07:41:04.020Z,100932.72
2022-08-12T07:43:31.701Z,100934.16
2022-08-12T07:46:00.324Z,100931.75
2022-08-12T07:48:27.914Z,100920.13
2022-08-12T07:50:55.163Z,100920.34
2022-08-12T07:53:22.410Z,100927.16
2022-08-12T07:55:49.571Z,100926.22
2022-08-12T07:58:16.524Z,100920.09
2022-08-12T08:00:44.593Z,100909.19
2022-08-12T08:03:13.414Z,100927.53
2022-08-12T08:05:46.504Z,100919.81
2022-08-12T08:08:18.582Z,100923.72
2022-08-12T08:10:46.373Z,100930.88
2022-08-12T08:13:13.662Z,100923.81
2022-08-12T08:18:28.943Z,100919.34
2022-08-12T08:20:56.812Z,100925.72
2022-08-12T08:23:46.395Z,100922.88
2022-08-12T08:26:15.737Z,100914.00
2022-08-12T08:28:44.172Z,100926.88
2022-08-12T08:31:13.436Z,100923.38
2022-08-12T08:34:05.250Z,100920.47
2022-08-12T08:36:28.967Z,100925.81
2022-08-12T08:38:58.686Z,100923.75
2022-08-12T08:42:19.187Z,100914.28
2022-08-12T08:44:36.427Z,100913.03
2022-08-12T08:47:05.670Z,100915.97
2022-08-12T08:49:33.011Z,100911.81
2022-08-12T08:52:04.603Z,100906.09
2022-08-12T08:54:33.627Z,100918.59
2022-08-12T08:57:01.953Z,100906.19
2022-08-12T08:59:29.061Z,100897.47
2022-08-12T09:01:56.720Z,100896.25
2022-08-12T09:05:13.272Z,100893.47
2022-08-12T09:07:17.852Z,100892.22
2022-08-12T09:10:02.047Z,100893.88
2022-08-12T09:15:41.692Z,100888.34
2022-08-12T09:18:11.781Z,100892.81
2022-08-12T09:20:40.523Z,100894.41
2022-08-12T09:26:04.333Z,100894.94
2022-08-12T09:28:37.327Z,100891.16
2022-08-12T09:32:02.652Z,100900.97
2022-08-12T09:34:27.874Z,100887.56
2022-08-12T09:36:57.722Z,100902.41
2022-08-12T09:40:05.720Z,100906.41
2022-08-12T09:42:43.409Z,100892.09
2022-08-12T09:46:11.466Z,100899.75
2022-08-12T09:48:20.072Z,100889.81
2022-08-12T09:50:51.650Z,100888.91
2022-08-12T09:53:29.260Z,100892.84
2022-08-12T09:56:07.168Z,100879.72
2022-08-12T09:58:59.997Z,100881.09
2022-08-12T10:01:35.392Z,100875.69
2022-08-12T10:04:19.097Z,100882.97
2022-08-12T10:06:54.326Z,100884.84
2022-08-12T10:09:28.435Z,100879.56
2022-08-12T10:12:31.547Z,100880.66
2022-08-12T10:15:02.143Z,100870.94
2022-08-12T10:17:29.647Z,100868.41
2022-08-12T10:19:59.731Z,100873.13
2022-08-12T10:22:36.447Z,100866.97
2022-08-12T10:26:18.969Z,100863.94
2022-08-12T10:28:33.283Z,100860.06
2022-08-12T10:31:01.165Z,100860.66
2022-08-12T10:33:31.982Z,100856.84
2022-08-12T10:36:02.018Z,100870.06
2022-08-12T10:38:37.559Z,100856.06
2022-08-12T10:41:57.279Z,100855.38
2022-08-12T10:44:16.887Z,100844.81
2022-08-12T10:46:49.861Z,100841.84
2022-08-12T10:50:03.693Z,100846.63
2022-08-12T10:52:34.939Z,100835.03
2022-08-12T10:54:56.250Z,100838.94
2022-08-12T10:58:12.731Z,100844.22
2022-08-12T11:00:34.859Z,100848.69
2022-08-12T11:04:26.257Z,100832.75
2022-08-12T11:07:10.116Z,100840.78
2022-08-12T11:08:43.517Z,100840.00
2022-08-12T11:12:07.502Z,100831.97
2022-08-12T11:14:05.891Z,100833.75
2022-08-12T11:16:33.406Z,100835.44
2022-08-12T11:19:02.936Z,100836.59
2022-08-12T11:21:56.308Z,100833.94
2022-08-12T11:24:31.873Z,100825.81
2022-08-12T11:27:01.352Z,100826.66
2022-08-12T11:30:05.477Z,100827.66
2022-08-12T11:32:16.952Z,100818.22
2022-08-12T11:34:51.716Z,100815.69
2022-08-12T11:37:26.480Z,100828.22
2022-08-12T11:42:39.640Z,100808.97
2022-08-12T11:45:16.894Z,100790.28
2022-08-12T11:47:44.492Z,100808.94
2022-08-12T11:50:19.248Z,100799.22
2022-08-12T11:52:56.392Z,100811.25
2022-08-12T11:55:25.402Z,100806.97
2022-08-12T11:59:02.764Z,100811.16
2022-08-12T12:03:44.154Z,100812.59
2022-08-12T12:06:18.017Z,100814.22
2022-08-12T12:08:51.063Z,100811.25
2022-08-12T12:11:20.245Z,100813.94
2022-08-12T12:14:06.604Z,100813.81
2022-08-12T12:16:38.012Z,100809.41
2022-08-12T12:19:05.718Z,100819.16
2022-08-12T12:21:47.845Z,100814.78
2022-08-12T12:24:21.805Z,100802.84
2022-08-12T12:27:00.893Z,100801.31
2022-08-12T12:30:13.750Z,100784.09
2022-08-12T12:32:17.294Z,100806.09
2022-08-12T12:35:14.474Z,100795.69
2022-08-12T12:37:59.037Z,100798.22
2022-08-12T12:40:21.570Z,100796.72
2022-08-12T12:42:55.334Z,100810.75
2022-08-12T12:45:26.316Z,100793.94
2022-08-12T12:48:07.965Z,100792.78
2022-08-12T12:51:48.907Z,100794.16
2022-08-12T12:54:09.987Z,100786.69
2022-08-12T12:56:40.623Z,100792.97
2022-08-12T12:59:55.434Z,100800.81
2022-08-12T13:01:55.548Z,100768.50
2022-08-12T13:04:22.790Z,100784.75
2022-08-12T13:06:52.280Z,100770.66
2022-08-12T13:09:22.310Z,100785.41
2022-08-12T13:11:53.486Z,100782.53
2022-08-12T13:14:27.969Z,100798.09
2022-08-12T13:17:02.701Z,100784.72
2022-08-12T13:19:42.264Z,100784.38
2022-08-12T13:22:23.624Z,100788.34
2022-08-12T13:24:56.220Z,100792.25
2022-08-12T13:27:34.548Z,100778.22
2022-08-12T13:30:06.750Z,100770.06
2022-08-12T13:32:37.995Z,100776.25
2022-08-12T13:35:19.745Z,100776.16
2022-08-12T13:37:55.851Z,100770.63
2022-08-12T13:40:33.462Z,100759.16
2022-08-12T13:43:02.121Z,100763.06
2022-08-12T13:45:31.231Z,100756.69
2022-08-12T13:48:05.540Z,100759.84
2022-08-12T13:50:37.553Z,100751.25
2022-08-12T13:53:24.322Z,100747.81
2022-08-12T13:55:59.382Z,100754.31
2022-08-12T13:58:28.348Z,100749.25
2022-08-12T14:00:58.390Z,100761.66
2022-08-12T14:03:28.449Z,100750.78
2022-08-12T14:06:15.199Z,100756.09
2022-08-12T14:08:43.718Z,100750.38
2022-08-12T14:11:12.352Z,100763.34
2022-08-12T14:14:05.176Z,100763.34
2022-08-12T14:16:46.606Z,100762.00
2022-08-12T14:19:22.862Z,100744.94
2022-08-12T14:22:01.506Z,100750.19
2022-08-12T14:24:41.097Z,100750.56
2022-08-12T14:27:10.601Z,100758.31
2022-08-12T14:30:06.193Z,100744.97
2022-08-12T14:32:35.508Z,100745.91
2022-08-12T14:35:09.511Z,100734.47
2022-08-12T14:37:56.604Z,100758.47
2022-08-12T14:40:30.065Z,100746.28
2022-08-12T14:43:00.217Z,100749.66
2022-08-12T14:45:44.368Z,100744.31
2022-08-12T14:48:19.430Z,100752.25
2022-08-12T14:51:02.847Z,100740.34
2022-08-12T14:59:56.864Z,100743.47
2022-08-12T15:02:22.061Z,100734.50
2022-08-12T15:04:58.856Z,100723.22
2022-08-12T15:07:34.168Z,100734.50
2022-08-12T15:10:32.015Z,100731.13
2022-08-12T15:13:07.178Z,100727.03
2022-08-12T15:15:38.606Z,100728.00
2022-08-12T15:18:21.660Z,100721.16
2022-08-12T15:20:54.726Z,100722.78
2022-08-12T15:23:23.120Z,100721.75
2022-08-12T15:25:59.837Z,100726.81
2022-08-12T15:28:34.809Z,100724.69
2022-08-12T15:31:03.389Z,100727.66
2022-08-12T15:33:52.735Z,100710.72
2022-08-12T15:36:50.244Z,100714.03
2022-08-12T15:39:16.720Z,100719.03
2022-08-12T15:41:49.332Z,100730.59
2022-08-12T15:44:42.060Z,100718.06
2022-08-12T15:47:05.268Z,100732.69
2022-08-12T15:49:54.357Z,100720.53
2022-08-12T15:52:27.550Z,100732.41
2022-08-12T15:54:58.671Z,100724.84
2022-08-12T15:57:27.383Z,100733.69
2022-08-12T16:00:06.647Z,100728.44
2022-08-12T16:02:50.165Z,100720.66
2022-08-12T16:06:16.943Z,100726.75
2022-08-12T16:08:15.212Z,100720.47
2022-08-12T16:10:44.842Z,100721.59
2022-08-12T16:13:14.683Z,100720.22
2022-08-12T16:15:51.065Z,100713.63
2022-08-12T16:18:37.264Z,100710.00
2022-08-12T16:21:09.086Z,100726.25
2022-08-12T16:23:55.321Z,100712.31
2022-08-12T16:26:27.386Z,100717.22
2022-08-12T16:29:15.155Z,100717.88
2022-08-12T16:31:44.549Z,100731.13
2022-08-12T16:34:25.446Z,100716.28
2022-08-12T16:37:13.239Z,100719.78
2022-08-12T16:39:59.792Z,100711.88
2022-08-12T16:42:28.856Z,100716.41
2022-08-12T16:45:01.879Z,100707.75
2022-08-12T16:47:57.503Z,100705.75
2022-08-12T16:50:22.806Z,100705.41
2022-08-12T16:52:59.787Z,100696.09
2022-08-12T16:55:42.283Z,100698.31
2022-08-12T16:58:28.327Z,100701.59
2022-08-12T17:00:58.810Z,100691.91
2022-08-12T17:03:30.602Z,100694.69
2022-08-12T17:05:57.697Z,100693.00
2022-08-12T17:08:29.001Z,100691.00
2022-08-12T17:10:56.602Z,100679.84
2022-08-12T17:13:26.373Z,100685.38
2022-08-12T17:16:04.934Z,100679.66
2022-08-12T17:18:43.944Z,100674.78
2022-08-12T17:21:40.124Z,100668.81
2022-08-12T17:24:10.565Z,100675.59
2022-08-12T17:26:45.028Z,100674.94
2022-08-12T17:29:31.952Z,100670.72
2022-08-12T17:32:08.772Z,100671.06
2022-08-12T17:34:55.048Z,100681.06
2022-08-12T17:37:22.295Z,100676.09
2022-08-12T17:40:12.003Z,100674.75
2022-08-12T17:42:42.301Z,100677.75
2022-08-12T17:45:18.217Z,100671.09
2022-08-12T17:48:00.773Z,100672.06
2022-08-12T17:50:32.433Z,100679.94
2022-08-12T17:53:02.871Z,100675.56
2022-08-12T17:55:43.663Z,100681.41
2022-08-12T17:58:21.619Z,100676.31
2022-08-12T18:01:03.402Z,100687.28
2022-08-12T18:04:04.231Z,100680.44
2022-08-12T18:06:17.987Z,100683.16
2022-08-12T18:08:54.436Z,100682.63
2022-08-12T18:12:06.270Z,100683.69
2022-08-12T18:14:29.994Z,100677.91
2022-08-12T18:17:00.642Z,100677.22
2022-08-12T18:19:34.266Z,100679.88
2022-08-12T18:22:22.176Z,100673.91
2022-08-12T18:25:04.945Z,100673.75
2022-08-12T18:27:44.762Z,100683.28
2022-08-12T18:30:16.442Z,100691.22
2022-08-12T18:33:03.461Z,100690.38
2022-08-12T18:35:46.947Z,100688.84
2022-08-12T18:38:21.900Z,100690.50
2022-08-12T18:41:25.720Z,100687.00
2022-08-12T18:44:09.700Z,100693.19
2022-08-12T18:46:54.328Z,100693.53
2022-08-12T18:49:37.956Z,100692.03
2022-08-12T18:52:07.948Z,100683.53
2022-08-12T18:54:41.262Z,100688.09
2022-08-12T18:57:20.009Z,100693.59
2022-08-12T19:00:06.515Z,100692.78
2022-08-12T19:02:39.950Z,100684.97
2022-08-12T19:05:12.306Z,100692.25
2022-08-12T19:07:49.470Z,100695.81
2022-08-12T19:10:23.009Z,100692.28
2022-08-12T19:13:10.596Z,100700.28
2022-08-12T19:15:43.173Z,100696.84
2022-08-12T19:18:13.322Z,100696.09
2022-08-12T19:20:41.851Z,100697.03
2022-08-12T19:23:16.801Z,100699.84
2022-08-12T19:26:00.715Z,100688.66
2022-08-12T19:28:35.173Z,100694.91
2022-08-12T19:31:56.502Z,100690.81
2022-08-12T19:37:26.863Z,100681.38
2022-08-12T19:40:10.317Z,100680.56
2022-08-12T19:42:57.735Z,100678.69
2022-08-12T19:45:41.936Z,100674.38
2022-08-12T19:48:16.583Z,100670.81
2022-08-12T19:50:50.140Z,100677.91
2022-08-12T19:53:22.898Z,100668.28
2022-08-12T19:55:55.149Z,100669.38
2022-08-12T19:58:23.428Z,100669.44
2022-08-12T20:00:54.381Z,100659.97
2022-08-12T20:03:39.281Z,100665.28
2022-08-12T20:06:21.539Z,100664.59
2022-08-12T20:08:55.886Z,100662.81
2022-08-12T20:12:11.677Z,100667.16
2022-08-12T20:14:19.507Z,100666.16
2022-08-12T20:16:54.403Z,100658.25
2022-08-12T20:19:52.770Z,100665.31
2022-08-12T20:22:33.313Z,100661.81
2022-08-12T20:25:07.229Z,100663.59
2022-08-12T20:28:04.853Z,100667.97
2022-08-12T20:30:52.903Z,100672.34
2022-08-12T20:33:17.595Z,100674.09
2022-08-12T20:36:13.006Z,100670.78
2022-08-12T20:38:38.192Z,100676.31
2022-08-12T20:41:17.575Z,100676.53
2022-08-12T20:43:51.762Z,100667.44
2022-08-12T20:46:19.991Z,100678.38
2022-08-12T20:48:55.235Z,100677.78
2022-08-12T20:51:27.596Z,100687.81
2022-08-12T20:53:58.770Z,100682.88
2022-08-12T20:56:34.341Z,100675.34
2022-08-12T20:59:07.227Z,100684.66
2022-08-12T21:01:47.022Z,100683.06
2022-08-12T21:04:35.824Z,100690.28
2022-08-12T21:07:09.125Z,100687.72
2022-08-12T21:09:42.504Z,100688.72
2022-08-12T21:12:31.340Z,100684.44
2022-08-12T21:15:17.542Z,100684.66
2022-08-12T21:18:11.280Z,100686.44
2022-08-12T21:20:50.300Z,100691.50
2022-08-12T21:23:21.653Z,100683.44
2022-08-12T21:25:51.255Z,100689.38
2022-08-12T21:28:22.433Z,100689.44
2022-08-12T21:32:34.395Z,100689.53
2022-08-12T21:33:58.803Z,100688.59
2022-08-12T21:36:34.869Z,100697.16
2022-08-12T21:39:18.357Z,100698.91
2022-08-12T21:41:50.886Z,100698.00
2022-08-12T21:44:24.288Z,100705.78
2022-08-12T21:47:21.652Z,100695.34
2022-08-12T21:50:02.373Z,100699.66
2022-08-12T21:52:35.689Z,100706.13
2022-08-12T21:55:08.385Z,100700.34
2022-08-12T21:57:50.868Z,100698.91
2022-08-12T22:00:31.956Z,100704.47
2022-08-12T22:04:02.161Z,100698.66
2022-08-12T22:06:31.553Z,100707.72
2022-08-12T22:09:16.437Z,100709.03
2022-08-12T22:11:56.662Z,100705.94
2022-08-12T22:14:30.198Z,100705.34
2022-08-12T22:16:58.692Z,100702.91
2022-08-12T22:19:27.857Z,100701.25
2022-08-12T22:21:58.784Z,100696.91
2022-08-12T22:24:30.544Z,100696.84
2022-08-12T22:27:18.083Z,100698.63
2022-08-12T22:30:08.453Z,100693.41
2022-08-12T22:32:44.824Z,100687.34
2022-08-12T22:35:47.282Z,100686.59
2022-08-12T22:38:20.038Z,100692.78
2022-08-12T22:40:52.404Z,100695.50
2022-08-12T22:44:00.551Z,100696.41
2022-08-12T22:46:52.097Z,100699.94
2022-08-12T22:49:49.067Z,100698.34
2022-08-12T22:52:14.247Z,100695.00
2022-08-12T22:55:00.276Z,100695.09
2022-08-12T22:57:53.317Z,100697.69
2022-08-12T23:00:23.980Z,100689.84
2022-08-12T23:02:52.077Z,100688.19
2022-08-12T23:05:36.693Z,100681.28
2022-08-12T23:08:13.892Z,100680.63
2022-08-12T23:10:46.420Z,100678.06
2022-08-12T23:13:42.267Z,100678.97
2022-08-12T23:16:10.007Z,100679.03
2022-08-12T23:18:48.113Z,100669.41
2022-08-12T23:21:18.639Z,100668.56
2022-08-12T23:24:09.375Z,100676.53
2022-08-12T23:26:56.319Z,100673.03
2022-08-12T23:29:29.803Z,100666.09
2022-08-12T23:32:10.961Z,100672.34
2022-08-12T23:34:37.913Z,100666.34
2022-08-12T23:37:06.480Z,100665.47
2022-08-12T23:40:13.500Z,100661.09
2022-08-12T23:42:22.045Z,100661.97
2022-08-12T23:45:03.469Z,100655.81
2022-08-12T23:47:38.178Z,100655.00
2022-08-12T23:50:16.149Z,100656.84
2022-08-12T23:52:46.549Z,100657.81
2022-08-12T23:55:25.098Z,100654.44
2022-08-12T23:58:20.692Z,100646.50
